sensor_id;sensor_type;location;lat;lon;timestamp;temperature;humidity
29007;DHT22;16104;48.642;9.008;2023-08-06T01:04:57;18.50;58.00
29007;DHT22;16104;48.642;9.008;2023-08-06T02:01:15;17.70;59.20
29007;DHT22;16104;48.642;9.008;2023-08-06T02:06:10;17.60;59.30
29007;DHT22;16104;48.642;9.008;2023-08-06T02:11:06;17.60;59.40
29007;DHT22;16104;48.642;9.008;2023-08-06T03:01:50;17.20;60.00
29007;DHT22;16104;48.642;9.008;2023-08-06T03:06:45;17.10;60.20
29007;DHT22;16104;48.642;9.008;2023-08-06T03:11:41;17.10;60.20
29007;DHT22;16104;48.642;9.008;2023-08-06T03:16:36;17.10;60.20
29007;DHT22;16104;48.642;9.008;2023-08-06T03:21:32;17.10;60.40
29007;DHT22;16104;48.642;9.008;2023-08-06T03:26:27;17.10;60.50
29007;DHT22;16104;48.642;9.008;2023-08-06T03:31:23;17.10;60.50
29007;DHT22;16104;48.642;9.008;2023-08-06T03:36:18;17.10;60.60
29007;DHT22;16104;48.642;9.008;2023-08-06T03:41:14;17.00;60.50
29007;DHT22;16104;48.642;9.008;2023-08-06T03:46:09;17.00;60.80
29007;DHT22;16104;48.642;9.008;2023-08-06T03:51:05;17.10;60.70
29007;DHT22;16104;48.642;9.008;2023-08-06T03:56:00;17.00;60.90
29007;DHT22;16104;48.642;9.008;2023-08-06T04:01:03;17.10;61.20
29007;DHT22;16104;48.642;9.008;2023-08-06T04:05:59;17.00;62.00
29007;DHT22;16104;48.642;9.008;2023-08-06T04:10:54;17.10;62.60
29007;DHT22;16104;48.642;9.008;2023-08-06T04:15:50;17.10;62.10
29007;DHT22;16104;48.642;9.008;2023-08-06T04:20:47;17.10;62.50
29007;DHT22;16104;48.642;9.008;2023-08-06T04:25:44;17.10;63.00
29007;DHT22;16104;48.642;9.008;2023-08-06T04:30:40;17.10;63.30
29007;DHT22;16104;48.642;9.008;2023-08-06T04:35:35;17.00;63.30
29007;DHT22;16104;48.642;9.008;2023-08-06T04:40:33;17.00;63.60
29007;DHT22;16104;48.642;9.008;2023-08-06T04:45:29;17.00;64.20
29007;DHT22;16104;48.642;9.008;2023-08-06T04:50:25;17.00;64.10
29007;DHT22;16104;48.642;9.008;2023-08-06T04:55:20;17.00;63.70
29007;DHT22;16104;48.642;9.008;2023-08-06T05:00:16;17.00;63.90
29007;DHT22;16104;48.642;9.008;2023-08-06T05:05:11;17.00;64.00
29007;DHT22;16104;48.642;9.008;2023-08-06T05:10:07;17.00;64.10
29007;DHT22;16104;48.642;9.008;2023-08-06T05:15:03;17.00;64.00
29007;DHT22;16104;48.642;9.008;2023-08-06T05:19:59;17.00;64.20
29007;DHT22;16104;48.642;9.008;2023-08-06T05:24:54;17.10;64.40
29007;DHT22;16104;48.642;9.008;2023-08-06T05:29:50;17.00;64.20
29007;DHT22;16104;48.642;9.008;2023-08-06T05:34:50;17.20;64.30
29007;DHT22;16104;48.642;9.008;2023-08-06T05:39:45;17.20;64.10
29007;DHT22;16104;48.642;9.008;2023-08-06T05:44:41;17.20;63.90
29007;DHT22;16104;48.642;9.008;2023-08-06T05:49:36;17.30;63.80
29007;DHT22;16104;48.642;9.008;2023-08-06T05:54:32;17.30;63.70
29007;DHT22;16104;48.642;9.008;2023-08-06T05:59:27;17.30;63.70
29007;DHT22;16104;48.642;9.008;2023-08-06T06:04:23;17.30;63.60
29007;DHT22;16104;48.642;9.008;2023-08-06T06:09:18;17.30;63.90
29007;DHT22;16104;48.642;9.008;2023-08-06T06:14:14;17.30;64.30
29007;DHT22;16104;48.642;9.008;2023-08-06T06:19:09;17.30;64.30
29007;DHT22;16104;48.642;9.008;2023-08-06T06:24:05;17.30;64.40
29007;DHT22;16104;48.642;9.008;2023-08-06T06:29:00;17.30;64.20
29007;DHT22;16104;48.642;9.008;2023-08-06T06:33:56;17.20;64.20
29007;DHT22;16104;48.642;9.008;2023-08-06T06:38:52;17.20;64.40
29007;DHT22;16104;48.642;9.008;2023-08-06T06:43:47;17.20;64.60
29007;DHT22;16104;48.642;9.008;2023-08-06T06:48:43;17.20;64.40
29007;DHT22;16104;48.642;9.008;2023-08-06T06:53:38;17.20;64.40
29007;DHT22;16104;48.642;9.008;2023-08-06T06:58:34;17.20;64.80
29007;DHT22;16104;48.642;9.008;2023-08-06T07:03:29;17.20;65.00
29007;DHT22;16104;48.642;9.008;2023-08-06T07:08:25;17.20;65.30
29007;DHT22;16104;48.642;9.008;2023-08-06T07:13:21;17.20;65.60
29007;DHT22;16104;48.642;9.008;2023-08-06T07:18:18;17.20;65.80
29007;DHT22;16104;48.642;9.008;2023-08-06T07:23:13;17.20;65.80
29007;DHT22;16104;48.642;9.008;2023-08-06T07:28:09;17.20;65.60
29007;DHT22;16104;48.642;9.008;2023-08-06T07:33:05;17.20;65.70
29007;DHT22;16104;48.642;9.008;2023-08-06T07:38:02;17.20;65.80
29007;DHT22;16104;48.642;9.008;2023-08-06T07:42:57;17.20;65.60
29007;DHT22;16104;48.642;9.008;2023-08-06T07:47:53;17.20;65.70
29007;DHT22;16104;48.642;9.008;2023-08-06T07:52:48;17.20;65.70
29007;DHT22;16104;48.642;9.008;2023-08-06T07:57:44;17.20;65.90
29007;DHT22;16104;48.642;9.008;2023-08-06T08:02:39;17.20;65.80
29007;DHT22;16104;48.642;9.008;2023-08-06T08:07:35;17.20;66.30
29007;DHT22;16104;48.642;9.008;2023-08-06T08:12:31;17.30;66.00
29007;DHT22;16104;48.642;9.008;2023-08-06T08:17:26;17.40;65.90
29007;DHT22;16104;48.642;9.008;2023-08-06T08:22:22;17.40;65.60
29007;DHT22;16104;48.642;9.008;2023-08-06T08:27:17;17.40;65.50
29007;DHT22;16104;48.642;9.008;2023-08-06T08:32:13;17.40;65.50
29007;DHT22;16104;48.642;9.008;2023-08-06T08:37:08;17.40;66.00
29007;DHT22;16104;48.642;9.008;2023-08-06T08:42:04;17.40;65.90
29007;DHT22;16104;48.642;9.008;2023-08-06T08:46:59;17.40;65.70
29007;DHT22;16104;48.642;9.008;2023-08-06T08:51:55;17.50;65.80
29007;DHT22;16104;48.642;9.008;2023-08-06T08:56:52;17.50;66.30
29007;DHT22;16104;48.642;9.008;2023-08-06T09:01:48;17.50;66.70
29007;DHT22;16104;48.642;9.008;2023-08-06T09:06:50;17.60;66.90
29007;DHT22;16104;48.642;9.008;2023-08-06T09:11:47;17.70;67.70
29007;DHT22;16104;48.642;9.008;2023-08-06T09:16:44;17.90;66.90
29007;DHT22;16104;48.642;9.008;2023-08-06T09:21:41;18.00;66.50
29007;DHT22;16104;48.642;9.008;2023-08-06T09:26:41;18.20;67.00
29007;DHT22;16104;48.642;9.008;2023-08-06T09:36:40;18.60;66.50
29007;DHT22;16104;48.642;9.008;2023-08-06T09:41:35;18.70;65.40
29007;DHT22;16104;48.642;9.008;2023-08-06T09:46:32;18.70;65.00
29007;DHT22;16104;48.642;9.008;2023-08-06T09:51:27;18.70;64.60
29007;DHT22;16104;48.642;9.008;2023-08-06T09:56:23;18.60;64.20
29007;DHT22;16104;48.642;9.008;2023-08-06T10:01:22;18.60;64.00
29007;DHT22;16104;48.642;9.008;2023-08-06T10:06:18;18.50;64.00
29007;DHT22;16104;48.642;9.008;2023-08-06T10:11:15;18.40;64.30
29007;DHT22;16104;48.642;9.008;2023-08-06T10:16:12;18.30;65.00
29007;DHT22;16104;48.642;9.008;2023-08-06T10:21:08;18.30;65.20
29007;DHT22;16104;48.642;9.008;2023-08-06T10:26:04;18.20;65.80
29007;DHT22;16104;48.642;9.008;2023-08-06T10:30:59;18.20;65.60
29007;DHT22;16104;48.642;9.008;2023-08-06T10:36:01;18.30;65.70
29007;DHT22;16104;48.642;9.008;2023-08-06T10:45:53;18.30;65.00
29007;DHT22;16104;48.642;9.008;2023-08-06T10:50:49;18.20;64.80
29007;DHT22;16104;48.642;9.008;2023-08-06T10:55:44;18.10;65.10
29007;DHT22;16104;48.642;9.008;2023-08-06T11:00:40;18.00;65.20
29007;DHT22;16104;48.642;9.008;2023-08-06T11:05:35;18.00;65.60
29007;DHT22;16104;48.642;9.008;2023-08-06T11:10:33;17.90;65.80
29007;DHT22;16104;48.642;9.008;2023-08-06T11:15:30;17.90;66.00
29007;DHT22;16104;48.642;9.008;2023-08-06T11:20:26;17.90;66.30
29007;DHT22;16104;48.642;9.008;2023-08-06T11:25:21;17.90;65.80
29007;DHT22;16104;48.642;9.008;2023-08-06T11:30:17;18.00;65.70
29007;DHT22;16104;48.642;9.008;2023-08-06T11:35:13;18.00;66.20
29007;DHT22;16104;48.642;9.008;2023-08-06T11:40:09;18.10;66.40
29007;DHT22;16104;48.642;9.008;2023-08-06T11:45:06;18.20;65.40
29007;DHT22;16104;48.642;9.008;2023-08-06T11:50:04;18.20;65.10
29007;DHT22;16104;48.642;9.008;2023-08-06T11:55:04;18.30;64.30
29007;DHT22;16104;48.642;9.008;2023-08-06T12:00:07;18.20;64.30
29007;DHT22;16104;48.642;9.008;2023-08-06T12:05:09;18.30;64.50
29007;DHT22;16104;48.642;9.008;2023-08-06T12:10:05;18.30;62.90
29007;DHT22;16104;48.642;9.008;2023-08-06T12:15:03;18.30;62.70
29007;DHT22;16104;48.642;9.008;2023-08-06T12:19:59;18.20;62.60
29007;DHT22;16104;48.642;9.008;2023-08-06T12:24:54;18.10;62.30
29007;DHT22;16104;48.642;9.008;2023-08-06T12:29:50;18.00;62.50
29007;DHT22;16104;48.642;9.008;2023-08-06T12:34:45;18.00;62.70
29007;DHT22;16104;48.642;9.008;2023-08-06T12:39:41;18.00;62.80
29007;DHT22;16104;48.642;9.008;2023-08-06T12:44:36;18.00;62.40
29007;DHT22;16104;48.642;9.008;2023-08-06T12:49:32;18.00;62.60
29007;DHT22;16104;48.642;9.008;2023-08-06T12:54:28;18.00;62.60
29007;DHT22;16104;48.642;9.008;2023-08-06T12:59:24;18.10;62.40
29007;DHT22;16104;48.642;9.008;2023-08-06T13:04:19;18.10;62.10
29007;DHT22;16104;48.642;9.008;2023-08-06T13:09:16;18.10;62.40
29007;DHT22;16104;48.642;9.008;2023-08-06T13:14:13;18.20;62.60
29007;DHT22;16104;48.642;9.008;2023-08-06T13:19:09;18.30;62.90
29007;DHT22;16104;48.642;9.008;2023-08-06T13:24:05;18.40;61.50
29007;DHT22;16104;48.642;9.008;2023-08-06T13:29:01;18.40;61.40
29007;DHT22;16104;48.642;9.008;2023-08-06T13:33:57;18.50;61.10
29007;DHT22;16104;48.642;9.008;2023-08-06T13:38:56;18.60;59.90
29007;DHT22;16104;48.642;9.008;2023-08-06T13:43:51;18.60;59.90
29007;DHT22;16104;48.642;9.008;2023-08-06T13:48:48;18.70;60.00
29007;DHT22;16104;48.642;9.008;2023-08-06T13:53:46;18.90;60.00
29007;DHT22;16104;48.642;9.008;2023-08-06T13:58:41;19.10;59.60
29007;DHT22;16104;48.642;9.008;2023-08-06T14:03:37;19.30;59.30
29007;DHT22;16104;48.642;9.008;2023-08-06T14:08:32;19.40;58.90
29007;DHT22;16104;48.642;9.008;2023-08-06T14:13:28;19.50;58.30
29007;DHT22;16104;48.642;9.008;2023-08-06T14:18:24;19.40;57.70
29007;DHT22;16104;48.642;9.008;2023-08-06T14:23:19;19.40;58.20
29007;DHT22;16104;48.642;9.008;2023-08-06T14:28:15;19.30;58.10
29007;DHT22;16104;48.642;9.008;2023-08-06T14:33:10;19.10;58.00
29007;DHT22;16104;48.642;9.008;2023-08-06T14:38:06;19.00;58.30
29007;DHT22;16104;48.642;9.008;2023-08-06T14:43:01;19.00;58.00
29007;DHT22;16104;48.642;9.008;2023-08-06T14:47:57;18.90;57.80
29007;DHT22;16104;48.642;9.008;2023-08-06T14:52:53;18.80;58.30
29007;DHT22;16104;48.642;9.008;2023-08-06T14:57:48;18.80;58.60
29007;DHT22;16104;48.642;9.008;2023-08-06T15:02:44;18.70;58.50
29007;DHT22;16104;48.642;9.008;2023-08-06T15:07:40;18.70;57.90
29007;DHT22;16104;48.642;9.008;2023-08-06T15:12:39;18.70;57.70
29007;DHT22;16104;48.642;9.008;2023-08-06T15:17:34;18.70;58.00
29007;DHT22;16104;48.642;9.008;2023-08-06T15:22:30;18.60;58.20
29007;DHT22;16104;48.642;9.008;2023-08-06T15:27:28;18.50;59.00
29007;DHT22;16104;48.642;9.008;2023-08-06T15:32:24;18.50;59.80
29007;DHT22;16104;48.642;9.008;2023-08-06T15:37:20;18.50;59.50
29007;DHT22;16104;48.642;9.008;2023-08-06T15:42:16;18.70;59.70
29007;DHT22;16104;48.642;9.008;2023-08-06T15:47:12;18.80;59.30
29007;DHT22;16104;48.642;9.008;2023-08-06T15:52:07;19.00;58.40
29007;DHT22;16104;48.642;9.008;2023-08-06T15:57:03;19.20;57.90
29007;DHT22;16104;48.642;9.008;2023-08-06T16:01:59;19.30;57.20
29007;DHT22;16104;48.642;9.008;2023-08-06T16:06:58;19.30;56.20
29007;DHT22;16104;48.642;9.008;2023-08-06T16:11:54;19.30;55.70
29007;DHT22;16104;48.642;9.008;2023-08-06T16:16:49;19.20;55.70
29007;DHT22;16104;48.642;9.008;2023-08-06T16:21:45;19.10;55.50
29007;DHT22;16104;48.642;9.008;2023-08-06T16:26:41;18.90;55.60
29007;DHT22;16104;48.642;9.008;2023-08-06T16:31:36;18.80;55.70
29007;DHT22;16104;48.642;9.008;2023-08-06T16:36:32;18.70;55.90
29007;DHT22;16104;48.642;9.008;2023-08-06T16:41:28;18.60;55.80
29007;DHT22;16104;48.642;9.008;2023-08-06T16:46:23;18.50;56.00
29007;DHT22;16104;48.642;9.008;2023-08-06T16:51:19;18.40;56.20
29007;DHT22;16104;48.642;9.008;2023-08-06T16:56:14;18.30;56.20
29007;DHT22;16104;48.642;9.008;2023-08-06T17:01:10;18.30;56.10
29007;DHT22;16104;48.642;9.008;2023-08-06T17:06:05;18.10;56.10
29007;DHT22;16104;48.642;9.008;2023-08-06T17:11:02;18.10;56.40
29007;DHT22;16104;48.642;9.008;2023-08-06T17:15:58;17.90;57.20
29007;DHT22;16104;48.642;9.008;2023-08-06T17:20:54;17.80;57.50
29007;DHT22;16104;48.642;9.008;2023-08-06T17:25:50;17.70;57.70
29007;DHT22;16104;48.642;9.008;2023-08-06T17:30:45;17.60;58.20
29007;DHT22;16104;48.642;9.008;2023-08-06T17:35:42;17.50;58.60
29007;DHT22;16104;48.642;9.008;2023-08-06T17:40:38;17.40;58.90
29007;DHT22;16104;48.642;9.008;2023-08-06T17:45:34;17.30;59.40
29007;DHT22;16104;48.642;9.008;2023-08-06T17:50:30;17.20;59.30
29007;DHT22;16104;48.642;9.008;2023-08-06T17:55:26;17.20;59.50
29007;DHT22;16104;48.642;9.008;2023-08-06T18:00:22;17.20;59.30
29007;DHT22;16104;48.642;9.008;2023-08-06T18:05:17;17.10;59.30
29007;DHT22;16104;48.642;9.008;2023-08-06T18:10:13;17.00;59.40
29007;DHT22;16104;48.642;9.008;2023-08-06T18:15:10;17.00;59.40
29007;DHT22;16104;48.642;9.008;2023-08-06T18:20:07;16.90;59.20
29007;DHT22;16104;48.642;9.008;2023-08-06T18:25:03;16.80;59.30
29007;DHT22;16104;48.642;9.008;2023-08-06T18:30:00;16.80;59.50
29007;DHT22;16104;48.642;9.008;2023-08-06T18:34:55;16.70;59.50
29007;DHT22;16104;48.642;9.008;2023-08-06T18:39:51;16.70;59.40
29007;DHT22;16104;48.642;9.008;2023-08-06T18:44:46;16.60;59.50
29007;DHT22;16104;48.642;9.008;2023-08-06T18:49:42;16.60;59.80
29007;DHT22;16104;48.642;9.008;2023-08-06T18:54:37;16.60;59.90
29007;DHT22;16104;48.642;9.008;2023-08-06T18:59:33;16.50;60.00
29007;DHT22;16104;48.642;9.008;2023-08-06T19:04:29;16.50;60.20
29007;DHT22;16104;48.642;9.008;2023-08-06T19:09:25;16.50;60.00
29007;DHT22;16104;48.642;9.008;2023-08-06T19:14:20;16.40;60.20
29007;DHT22;16104;48.642;9.008;2023-08-06T19:19:16;16.40;60.50
29007;DHT22;16104;48.642;9.008;2023-08-06T19:24:11;16.30;60.60
29007;DHT22;16104;48.642;9.008;2023-08-06T19:29:07;16.30;60.40
29007;DHT22;16104;48.642;9.008;2023-08-06T19:34:03;16.30;60.20
29007;DHT22;16104;48.642;9.008;2023-08-06T19:38:58;16.20;60.10
29007;DHT22;16104;48.642;9.008;2023-08-06T19:43:54;16.20;60.10
29007;DHT22;16104;48.642;9.008;2023-08-06T19:48:49;16.20;59.90
29007;DHT22;16104;48.642;9.008;2023-08-06T19:53:46;16.30;59.80
29007;DHT22;16104;48.642;9.008;2023-08-06T19:58:43;16.30;59.30
29007;DHT22;16104;48.642;9.008;2023-08-06T20:03:38;16.20;59.20
29007;DHT22;16104;48.642;9.008;2023-08-06T20:08:38;16.20;59.10
29007;DHT22;16104;48.642;9.008;2023-08-06T20:13:34;16.10;59.00
29007;DHT22;16104;48.642;9.008;2023-08-06T20:18:29;16.10;58.80
29007;DHT22;16104;48.642;9.008;2023-08-06T20:23:25;16.10;58.70
29007;DHT22;16104;48.642;9.008;2023-08-06T20:28:20;16.10;58.70
29007;DHT22;16104;48.642;9.008;2023-08-06T20:33:16;16.10;58.90
29007;DHT22;16104;48.642;9.008;2023-08-06T20:38:11;16.10;59.00
29007;DHT22;16104;48.642;9.008;2023-08-06T20:43:07;16.00;59.10
29007;DHT22;16104;48.642;9.008;2023-08-06T20:48:03;16.00;59.40
29007;DHT22;16104;48.642;9.008;2023-08-06T20:52:58;16.00;59.60
29007;DHT22;16104;48.642;9.008;2023-08-06T20:57:54;15.90;59.90
29007;DHT22;16104;48.642;9.008;2023-08-06T21:02:50;15.90;60.10
29007;DHT22;16104;48.642;9.008;2023-08-06T21:07:46;15.80;60.70
29007;DHT22;16104;48.642;9.008;2023-08-06T21:12:41;15.70;61.20
29007;DHT22;16104;48.642;9.008;2023-08-06T21:17:37;15.70;61.50
29007;DHT22;16104;48.642;9.008;2023-08-06T21:22:33;15.60;61.90
29007;DHT22;16104;48.642;9.008;2023-08-06T21:27:29;15.50;62.00
29007;DHT22;16104;48.642;9.008;2023-08-06T21:32:24;15.40;62.20
29007;DHT22;16104;48.642;9.008;2023-08-06T21:37:20;15.30;62.30
29007;DHT22;16104;48.642;9.008;2023-08-06T21:42:15;15.20;62.40
29007;DHT22;16104;48.642;9.008;2023-08-06T21:47:11;15.20;63.00
29007;DHT22;16104;48.642;9.008;2023-08-06T21:52:06;15.10;63.10
29007;DHT22;16104;48.642;9.008;2023-08-06T21:57:02;15.00;63.30
29007;DHT22;16104;48.642;9.008;2023-08-06T22:01:58;15.00;63.60
29007;DHT22;16104;48.642;9.008;2023-08-06T22:06:53;14.90;63.90
29007;DHT22;16104;48.642;9.008;2023-08-06T22:11:49;14.90;64.00
29007;DHT22;16104;48.642;9.008;2023-08-06T22:16:44;14.80;64.00
29007;DHT22;16104;48.642;9.008;2023-08-06T22:21:41;14.80;64.20
29007;DHT22;16104;48.642;9.008;2023-08-06T22:26:37;14.80;64.40
29007;DHT22;16104;48.642;9.008;2023-08-06T22:31:32;14.70;64.50
29007;DHT22;16104;48.642;9.008;2023-08-06T22:36:28;14.70;64.50
29007;DHT22;16104;48.642;9.008;2023-08-06T22:41:23;14.60;64.60
29007;DHT22;16104;48.642;9.008;2023-08-06T22:46:19;14.60;64.60
29007;DHT22;16104;48.642;9.008;2023-08-06T22:51:16;14.60;64.70
29007;DHT22;16104;48.642;9.008;2023-08-06T22:56:12;14.60;65.00
29007;DHT22;16104;48.642;9.008;2023-08-06T23:01:08;14.50;65.00
29007;DHT22;16104;48.642;9.008;2023-08-06T23:06:03;14.50;65.10
29007;DHT22;16104;48.642;9.008;2023-08-06T23:10:59;14.50;65.20
29007;DHT22;16104;48.642;9.008;2023-08-06T23:15:56;14.50;65.20
29007;DHT22;16104;48.642;9.008;2023-08-06T23:20:51;14.40;65.20
29007;DHT22;16104;48.642;9.008;2023-08-06T23:25:47;14.40;65.20
29007;DHT22;16104;48.642;9.008;2023-08-06T23:30:42;14.40;65.20
29007;DHT22;16104;48.642;9.008;2023-08-06T23:35:42;14.40;65.30
29007;DHT22;16104;48.642;9.008;2023-08-06T23:40:37;14.40;65.00
29007;DHT22;16104;48.642;9.008;2023-08-06T23:45:33;14.40;65.00
29007;DHT22;16104;48.642;9.008;2023-08-06T23:50:29;14.30;64.80
29007;DHT22;16104;48.642;9.008;2023-08-06T23:55:25;14.30;64.80
